Time;durP1;ratioP1;P1;durP2;ratioP2;P2;SDS_P1;SDS_P2;PMS_P1;PMS_P2;Temp;Humidity;BMP_temperature;BMP_pressure;BME280_temperature;BME280_humidity;BME280_pressure;Samples;Min_cycle;Max_cycle;Signal;HPM_P1;HPM_P2
2022/07/21 00:01:49;;;;;;;;;27.33;25.00;;;;;23.28;57.27;101253.26;111211;1258;22897;-81
2022/07/21 00:04:17;;;;;;;;;28.33;25.33;;;;;23.26;57.04;101249.69;111138;1258;18818;-81
2022/07/21 00:06:44;;;;;;;;;24.00;22.67;;;;;23.17;57.48;101251.08;111129;1258;19544;-81
2022/07/21 00:09:12;;;;;;;;;25.33;22.67;;;;;23.13;57.75;101250.95;111164;1258;18886;-80
2022/07/21 00:11:39;;;;;;;;;24.33;21.00;;;;;23.16;57.64;101246.29;110999;1259;22830;-80
2022/07/21 00:14:06;;;;;;;;;27.33;24.33;;;;;23.06;57.85;101244.48;111169;1258;19836;-80
2022/07/21 00:16:34;;;;;;;;;27.00;25.00;;;;;22.95;58.14;101244.71;111138;1258;21865;-80
2022/07/21 00:19:01;;;;;;;;;25.00;23.00;;;;;22.94;58.26;101242.91;110999;1258;22189;-83
2022/07/21 00:21:29;;;;;;;;;21.00;21.00;;;;;22.98;58.25;101246.91;111200;1258;19732;-83
2022/07/21 00:23:56;;;;;;;;;22.33;21.67;;;;;23.05;58.07;101250.08;111214;1258;18723;-83
2022/07/21 00:26:23;;;;;;;;;24.00;23.00;;;;;22.94;58.34;101256.80;111196;1258;18855;-82
2022/07/21 00:28:51;;;;;;;;;31.67;28.33;;;;;22.97;58.57;101257.79;111249;1258;19819;-82
2022/07/21 00:31:18;;;;;;;;;28.67;26.33;;;;;22.97;58.57;101258.61;111144;1258;18775;-82
2022/07/21 00:33:46;;;;;;;;;24.00;23.00;;;;;22.79;59.02;101259.52;111192;1258;19197;-83
2022/07/21 00:36:13;;;;;;;;;28.67;26.00;;;;;22.74;59.22;101261.55;111207;1258;23120;-80
2022/07/21 00:38:41;;;;;;;;;24.00;23.50;;;;;22.77;59.35;101261.92;111089;1259;18781;-80
2022/07/21 00:41:08;;;;;;;;;26.50;25.00;;;;;22.67;59.41;101257.23;111110;1258;19163;-81
2022/07/21 00:43:35;;;;;;;;;31.00;26.33;;;;;22.56;59.68;101261.60;111145;1258;19773;-81
2022/07/21 00:46:03;;;;;;;;;24.33;23.00;;;;;22.63;59.52;101263.30;111032;1258;19563;-80
2022/07/21 00:48:30;;;;;;;;;29.67;28.00;;;;;22.60;59.38;101261.34;111078;1258;23704;-82
2022/07/21 00:50:58;;;;;;;;;26.67;25.00;;;;;22.65;59.33;101263.64;111174;1258;19570;-81
2022/07/21 00:53:26;;;;;;;;;26.33;25.67;;;;;22.78;58.82;101264.70;111179;1258;19036;-81
2022/07/21 00:55:53;;;;;;;;;27.00;24.00;;;;;22.68;59.00;101269.38;111214;1258;18889;-80
2022/07/21 00:58:21;;;;;;;;;26.67;26.00;;;;;22.56;59.26;101267.23;111271;1258;19558;-80
2022/07/21 01:00:48;;;;;;;;;28.50;27.00;;;;;22.50;59.64;101268.92;111400;1258;18959;-80
2022/07/21 01:03:16;;;;;;;;;27.67;25.67;;;;;22.49;59.62;101264.14;111172;1258;18887;-80
2022/07/21 01:05:43;;;;;;;;;27.00;24.67;;;;;22.42;59.69;101258.57;111209;1258;19541;-80
2022/07/21 01:08:11;;;;;;;;;26.50;23.50;;;;;22.32;60.15;101254.73;111217;1258;18937;-81
2022/07/21 01:10:38;;;;;;;;;29.00;26.00;;;;;22.30;60.11;101250.20;111166;1258;18850;-81
2022/07/21 01:13:06;;;;;;;;;30.33;28.00;;;;;22.26;60.41;101255.58;111206;1258;22112;-80
2022/07/21 01:15:33;;;;;;;;;28.00;24.00;;;;;22.34;60.19;101253.27;111147;1258;19040;-82
2022/07/21 01:18:00;;;;;;;;;26.67;24.33;;;;;22.33;60.10;101258.83;111031;1258;20329;-81
2022/07/21 01:20:28;;;;;;;;;24.50;24.00;;;;;22.35;60.12;101254.22;111148;1258;19558;-81
2022/07/21 01:22:56;;;;;;;;;23.67;22.67;;;;;22.21;60.24;101253.64;111186;1258;22118;-83
2022/07/21 01:25:23;;;;;;;;;30.67;27.67;;;;;22.22;60.38;101248.59;111176;1258;19548;-81
2022/07/21 01:27:51;;;;;;;;;29.33;28.00;;;;;22.34;60.15;101248.72;111138;1258;19492;-81
2022/07/21 01:30:18;;;;;;;;;25.67;24.00;;;;;22.23;60.33;101248.98;111093;1258;19814;-82
2022/07/21 01:32:45;;;;;;;;;31.00;28.00;;;;;22.33;60.13;101246.44;111143;1258;19245;-80
2022/07/21 01:35:13;;;;;;;;;27.00;26.00;;;;;22.24;60.38;101246.35;111201;1258;22356;-77
2022/07/21 01:37:40;;;;;;;;;29.33;27.33;;;;;22.12;60.67;101248.02;111168;1258;18791;-80
2022/07/21 01:42:53;;;;;;;;;29.33;27.00;;;;;22.01;61.08;101245.27;111184;1258;19543;-81
2022/07/21 01:45:22;;;;;;;;;24.67;23.67;;;;;22.14;60.98;101248.84;111171;1258;19004;-81
2022/07/21 01:47:49;;;;;;;;;28.00;26.00;;;;;21.98;61.19;101244.35;111155;1258;19153;-81
2022/07/21 01:50:18;;;;;;;;;26.00;26.00;;;;;21.98;61.12;101248.55;111211;1258;19756;-82
2022/07/21 01:52:46;;;;;;;;;29.67;25.00;;;;;21.98;61.25;101246.72;111202;1258;18781;-80
2022/07/21 01:55:13;;;;;;;;;24.67;24.33;;;;;21.94;61.32;101245.59;111171;1258;22594;-80
2022/07/21 01:57:41;;;;;;;;;31.00;27.33;;;;;21.90;61.35;101239.84;111177;1258;19560;-80
2022/07/21 02:00:08;;;;;;;;;27.67;26.67;;;;;21.81;61.48;101232.67;111167;1258;32193;-80
2022/07/21 02:02:36;;;;;;;;;30.00;26.00;;;;;21.76;61.65;101232.61;111145;1258;20701;-80
2022/07/21 02:05:03;;;;;;;;;26.00;24.67;;;;;21.68;62.04;101228.26;111262;1258;19899;-80
2022/07/21 02:07:31;;;;;;;;;31.50;29.00;;;;;21.75;61.74;101230.80;111237;1258;20173;-80
2022/07/21 02:09:59;;;;;;;;;29.00;25.00;;;;;21.66;61.95;101238.48;111174;1258;23687;-80
2022/07/21 02:12:26;;;;;;;;;24.00;22.33;;;;;21.72;62.12;101240.23;111178;1258;21259;-80
2022/07/21 02:14:54;;;;;;;;;30.67;29.00;;;;;21.81;61.86;101240.83;111170;1258;18901;-82
2022/07/21 02:17:21;;;;;;;;;26.67;26.00;;;;;21.83;61.70;101247.14;111185;1256;19236;-82
2022/07/21 02:19:48;;;;;;;;;27.00;26.67;;;;;21.78;61.81;101250.42;111249;1258;19562;-83
2022/07/21 02:22:16;;;;;;;;;26.33;26.00;;;;;21.84;61.55;101249.73;111190;1258;22038;-83
2022/07/21 02:24:43;;;;;;;;;28.50;25.50;;;;;21.78;61.72;101252.44;111172;1258;20720;-82
2022/07/21 02:27:11;;;;;;;;;21.33;21.33;;;;;21.80;61.88;101251.83;111136;1259;19911;-80
2022/07/21 02:29:38;;;;;;;;;29.50;29.00;;;;;21.76;61.78;101243.61;111166;1258;20151;-80
2022/07/21 02:32:06;;;;;;;;;29.67;25.67;;;;;21.63;62.36;101246.16;111203;1258;18862;-80
2022/07/21 02:34:33;;;;;;;;;25.67;23.67;;;;;21.56;62.58;101247.05;111181;1259;30041;-80
2022/07/21 02:37:00;;;;;;;;;30.33;26.00;;;;;21.60;62.89;101245.34;111140;1258;18710;-81
2022/07/21 02:39:28;;;;;;;;;29.00;26.00;;;;;21.67;62.54;101245.33;111129;1258;18785;-81
2022/07/21 02:41:55;;;;;;;;;27.67;23.67;;;;;21.69;62.23;101245.62;111138;1259;19463;-81
2022/07/21 02:44:23;;;;;;;;;25.50;23.50;;;;;21.60;62.38;101250.05;111157;1258;18944;-80
2022/07/21 02:46:50;;;;;;;;;24.67;23.33;;;;;21.68;62.39;101245.61;111199;1258;19184;-81
2022/07/21 02:49:18;;;;;;;;;25.67;24.33;;;;;21.80;61.98;101246.36;111174;1258;22298;-81
2022/07/21 02:51:46;;;;;;;;;24.33;23.33;;;;;21.77;62.29;101255.70;111107;1259;18992;-81
2022/07/21 02:54:13;;;;;;;;;28.00;23.33;;;;;21.78;62.21;101254.95;111158;1258;19031;-82
2022/07/21 02:56:40;;;;;;;;;27.00;24.67;;;;;21.55;62.46;101254.52;111133;1258;21951;-81
2022/07/21 02:59:08;;;;;;;;;26.00;25.33;;;;;21.46;63.36;101253.83;111046;1260;20328;-82
2022/07/21 03:01:35;;;;;;;;;25.67;25.00;;;;;21.47;63.00;101252.98;111128;1258;18818;-80
2022/07/21 03:04:03;;;;;;;;;25.00;24.50;;;;;21.36;63.27;101252.72;111139;1258;19576;-81
2022/07/21 03:06:30;;;;;;;;;26.67;25.00;;;;;21.37;63.47;101248.43;111195;1258;22346;-80
2022/07/21 03:08:57;;;;;;;;;27.00;26.00;;;;;21.43;63.40;101244.20;111171;1259;18774;-80
2022/07/21 03:11:25;;;;;;;;;26.33;24.33;;;;;21.29;63.63;101239.16;111147;1258;19543;-82
2022/07/21 03:13:52;;;;;;;;;29.33;25.00;;;;;21.27;63.75;101235.35;111204;1258;20437;-81
2022/07/21 03:16:20;;;;;;;;;26.50;23.50;;;;;21.31;63.53;101234.58;111149;1258;18996;-80
2022/07/21 03:18:47;;;;;;;;;27.33;23.33;;;;;21.25;63.78;101229.71;111462;1258;19833;-80
2022/07/21 03:21:14;;;;;;;;;28.00;25.67;;;;;21.28;63.40;101232.52;111508;1258;19269;-80
2022/07/21 03:23:45;;;;;;;;;23.00;21.00;;;;;21.22;63.61;101234.95;111296;1258;18875;-81
2022/07/21 03:26:13;;;;;;;;;26.67;24.67;;;;;21.21;63.67;101240.03;111179;1258;19911;-80
2022/07/21 03:28:40;;;;;;;;;28.00;25.33;;;;;21.25;63.53;101239.73;111124;1259;19019;-81
2022/07/21 03:31:08;;;;;;;;;24.67;24.00;;;;;21.32;63.50;101240.13;111242;1259;19005;-81
2022/07/21 03:33:35;;;;;;;;;26.00;23.33;;;;;21.15;63.86;101242.88;111158;1258;22810;-80
2022/07/21 03:36:02;;;;;;;;;23.00;21.00;;;;;21.25;63.91;101241.78;111119;1258;18734;-81
2022/07/21 03:38:30;;;;;;;;;26.50;23.00;;;;;21.26;63.67;101241.77;111214;1258;18882;-81
2022/07/21 03:40:57;;;;;;;;;25.00;24.00;;;;;21.31;63.42;101243.67;111196;1258;19555;-83
2022/07/21 03:43:25;;;;;;;;;25.33;23.67;;;;;21.38;63.48;101243.96;111238;1258;19386;-80
2022/07/21 03:45:52;;;;;;;;;23.00;22.00;;;;;21.47;63.13;101239.56;111171;1257;18821;-80
2022/07/21 03:48:19;;;;;;;;;24.00;23.33;;;;;21.40;63.01;101241.98;111185;1258;19915;-84
2022/07/21 03:50:47;;;;;;;;;25.00;21.50;;;;;21.43;63.04;101243.05;111052;1258;19334;-83
2022/07/21 03:53:14;;;;;;;;;25.33;24.00;;;;;21.37;63.02;101241.34;111254;1258;20560;-83
2022/07/21 03:55:42;;;;;;;;;24.00;21.00;;;;;21.40;62.96;101238.81;111179;1258;19490;-82
2022/07/21 03:58:09;;;;;;;;;22.67;21.00;;;;;21.45;62.79;101235.17;111164;1258;20147;-83
2022/07/21 04:00:36;;;;;;;;;21.00;21.00;;;;;21.53;62.62;101232.86;111153;1258;19087;-81
2022/07/21 04:03:04;;;;;;;;;24.33;21.67;;;;;21.42;62.91;101235.48;111185;1258;22947;-83
2022/07/21 04:05:31;;;;;;;;;22.67;21.00;;;;;21.37;63.19;101235.55;111184;1258;19095;-81
2022/07/21 04:07:59;;;;;;;;;28.00;26.67;;;;;21.44;62.94;101238.55;111242;1258;20822;-82
2022/07/21 04:10:26;;;;;;;;;25.67;24.67;;;;;21.58;62.49;101231.41;111136;1258;19869;-82
2022/07/21 04:12:54;;;;;;;;;25.33;25.33;;;;;21.52;62.67;101227.50;111181;1258;21131;-82
2022/07/21 04:15:21;;;;;;;;;23.67;22.00;;;;;21.47;62.82;101226.07;111145;1258;19417;-83
2022/07/21 04:17:49;;;;;;;;;28.33;25.67;;;;;21.39;63.12;101226.58;111146;1258;19582;-83
2022/07/21 04:20:16;;;;;;;;;24.67;23.00;;;;;21.48;62.94;101225.98;111285;1258;18744;-83
2022/07/21 04:22:44;;;;;;;;;24.33;21.00;;;;;21.60;62.53;101229.02;111184;1258;20356;-83
2022/07/21 04:25:11;;;;;;;;;25.00;23.67;;;;;21.61;62.48;101231.09;111165;1258;19645;-83
2022/07/21 04:27:39;;;;;;;;;22.67;21.00;;;;;21.69;62.52;101225.83;111181;1258;19200;-83
2022/07/21 04:30:06;;;;;;;;;27.67;22.00;;;;;21.67;62.38;101229.02;111184;1258;19035;-83
2022/07/21 04:32:33;;;;;;;;;29.00;25.00;;;;;21.74;62.22;101231.80;111191;1258;19638;-86
2022/07/21 04:35:01;;;;;;;;;22.00;21.33;;;;;21.83;61.90;101231.19;111226;1258;20166;-83
2022/07/21 04:37:28;;;;;;;;;23.00;22.00;;;;;21.86;61.97;101227.90;111160;1258;18865;-83
2022/07/21 04:39:56;;;;;;;;;22.00;21.00;;;;;21.96;61.58;101230.61;111096;1258;19508;-83
2022/07/21 04:42:23;;;;;;;;;23.00;19.67;;;;;22.00;61.42;101232.69;111085;1258;22138;-83
2022/07/21 04:44:51;;;;;;;;;27.33;23.00;;;;;21.98;61.88;101232.73;111170;1259;27273;-83
2022/07/21 04:47:18;;;;;;;;;23.33;22.33;;;;;22.08;61.74;101232.45;111077;1261;19562;-83
2022/07/21 04:49:45;;;;;;;;;22.00;20.67;;;;;22.16;61.14;101237.94;111130;1258;21697;-82
2022/07/21 04:52:13;;;;;;;;;22.33;21.33;;;;;22.21;61.00;101237.11;111134;1258;21938;-83
2022/07/21 04:54:41;;;;;;;;;26.67;22.67;;;;;22.29;60.62;101236.65;111176;1258;19499;-83
2022/07/21 04:57:08;;;;;;;;;27.00;23.00;;;;;22.37;60.28;101232.90;111200;1258;18806;-82
2022/07/21 04:59:36;;;;;;;;;22.67;21.33;;;;;22.39;60.31;101231.77;111192;1258;19127;-82
2022/07/21 05:02:03;;;;;;;;;19.33;19.00;;;;;22.41;60.22;101231.35;111236;1258;22883;-83
2022/07/21 05:04:30;;;;;;;;;22.33;21.00;;;;;22.46;59.85;101229.70;111183;1258;21678;-83
2022/07/21 05:06:58;;;;;;;;;22.67;21.00;;;;;22.49;59.68;101228.90;111159;1258;18920;-82
2022/07/21 05:09:25;;;;;;;;;22.67;22.00;;;;;22.54;59.52;101234.85;111116;1258;19599;-84
2022/07/21 05:11:53;;;;;;;;;21.67;21.00;;;;;22.65;59.58;101236.76;111123;1259;18759;-82
2022/07/21 05:14:20;;;;;;;;;23.67;22.33;;;;;22.55;59.46;101235.71;111170;1259;23306;-82
2022/07/21 05:16:47;;;;;;;;;25.00;21.00;;;;;22.61;59.36;101232.83;111096;1258;20022;-82
2022/07/21 05:19:15;;;;;;;;;18.00;17.50;;;;;22.85;58.67;101232.60;111148;1258;21290;-82
2022/07/21 05:21:42;;;;;;;;;19.00;18.00;;;;;22.88;58.59;101240.98;111147;1258;21978;-82
2022/07/21 05:24:10;;;;;;;;;20.33;18.67;;;;;22.90;58.43;101237.83;111143;1258;19467;-87
2022/07/21 05:26:37;;;;;;;;;20.00;19.00;;;;;22.93;58.35;101243.73;111170;1259;21751;-82
2022/07/21 05:29:05;;;;;;;;;15.00;15.00;;;;;22.91;58.56;101242.67;111194;1258;18875;-83
2022/07/21 05:31:32;;;;;;;;;19.67;19.33;;;;;23.07;58.20;101253.02;111094;1258;20384;-84
2022/07/21 05:33:59;;;;;;;;;20.00;18.33;;;;;23.14;57.74;101255.05;111185;1258;18772;-84
2022/07/21 05:36:27;;;;;;;;;19.00;18.00;;;;;23.17;57.71;101254.77;111070;1258;19402;-81
2022/07/21 05:38:54;;;;;;;;;18.00;17.33;;;;;23.27;57.46;101253.23;111172;1258;19555;-82
2022/07/21 05:41:22;;;;;;;;;18.67;17.33;;;;;23.36;57.07;101251.27;111213;1259;18700;-82
2022/07/21 05:43:49;;;;;;;;;16.00;15.00;;;;;23.45;56.93;101247.25;111199;1258;19294;-83
2022/07/21 05:46:17;;;;;;;;;19.00;18.00;;;;;23.57;56.50;101244.29;111146;1258;19699;-83
2022/07/21 05:48:44;;;;;;;;;17.50;16.00;;;;;23.65;56.34;101241.68;111110;1258;18700;-83
2022/07/21 05:51:12;;;;;;;;;17.67;16.67;;;;;23.71;56.20;101240.09;111032;1259;19429;-82
2022/07/21 05:53:39;;;;;;;;;19.00;17.00;;;;;23.78;55.95;101236.71;111051;1259;19481;-82
2022/07/21 05:56:07;;;;;;;;;17.67;17.00;;;;;23.76;55.94;101236.42;111188;1258;18954;-81
2022/07/21 05:58:34;;;;;;;;;16.00;16.00;;;;;23.88;55.94;101229.89;111116;1259;23137;-81
2022/07/21 06:01:12;;;;;;;;;20.00;16.00;;;;;23.95;55.86;101233.84;111146;1259;19555;-82
2022/07/21 06:03:39;;;;;;;;;19.33;15.33;;;;;24.08;55.70;101234.88;111021;1258;18930;-82
2022/07/21 06:06:07;;;;;;;;;19.67;17.00;;;;;24.07;55.35;101228.26;110939;1258;18850;-82
2022/07/21 06:08:34;;;;;;;;;17.00;16.67;;;;;24.13;55.29;101228.27;110959;1258;19586;-82
2022/07/21 06:11:02;;;;;;;;;19.00;15.00;;;;;24.20;54.88;101223.53;111127;1258;18879;-84
2022/07/21 06:13:29;;;;;;;;;20.00;14.00;;;;;24.32;54.55;101221.39;111050;1259;19181;-84
2022/07/21 06:15:57;;;;;;;;;17.00;15.33;;;;;24.46;53.93;101226.04;111131;1258;19618;-83
2022/07/21 06:18:24;;;;;;;;;15.00;13.00;;;;;24.42;53.55;101226.23;111180;1258;19126;-82
2022/07/21 06:20:52;;;;;;;;;16.00;15.67;;;;;24.41;53.55;101231.57;111044;1259;19015;-84
2022/07/21 06:23:19;;;;;;;;;16.33;16.00;;;;;24.50;53.24;101230.81;111211;1258;19590;-84
2022/07/21 06:25:46;;;;;;;;;17.00;15.50;;;;;24.62;53.23;101223.68;111120;1258;18785;-82
2022/07/21 06:28:14;;;;;;;;;17.33;16.00;;;;;24.73;53.23;101220.45;111153;1258;21209;-83
2022/07/21 06:30:41;;;;;;;;;15.00;15.00;;;;;24.75;53.23;101218.20;111170;1258;21466;-83
2022/07/21 06:33:09;;;;;;;;;15.67;14.33;;;;;24.79;53.19;101217.58;111144;1258;21779;-83
2022/07/21 06:35:36;;;;;;;;;14.33;14.00;;;;;24.89;53.04;101213.96;111185;1258;19184;-83
2022/07/21 06:38:03;;;;;;;;;17.00;13.00;;;;;24.93;52.79;101218.33;111088;1258;19509;-83
2022/07/21 06:40:31;;;;;;;;;16.33;14.33;;;;;24.98;52.78;101221.92;111109;1258;21795;-83
2022/07/21 06:42:58;;;;;;;;;17.00;16.00;;;;;25.00;52.25;101223.67;111125;1258;19143;-83
2022/07/21 06:45:26;;;;;;;;;14.00;14.00;;;;;25.01;52.08;101226.05;111035;1258;19556;-83
2022/07/21 06:47:53;;;;;;;;;14.33;12.67;;;;;25.01;51.93;101227.86;111051;1259;18807;-81
2022/07/21 06:50:20;;;;;;;;;16.00;14.00;;;;;25.14;51.97;101232.70;111193;1258;19027;-82
2022/07/21 06:52:48;;;;;;;;;14.67;13.33;;;;;25.18;51.67;101232.38;111120;1258;19492;-83
2022/07/21 06:55:15;;;;;;;;;13.33;13.00;;;;;25.20;51.36;101229.20;111119;1258;20930;-83
2022/07/21 06:57:42;;;;;;;;;15.33;14.00;;;;;25.24;51.54;101222.09;111141;1258;22230;-82
2022/07/21 07:00:09;;;;;;;;;14.00;14.00;;;;;25.34;51.41;101220.48;111157;1258;27335;-83
2022/07/21 07:02:37;;;;;;;;;17.33;16.00;;;;;25.47;51.26;101223.27;111117;1258;18926;-82
2022/07/21 07:05:04;;;;;;;;;15.33;15.33;;;;;25.46;51.10;101216.93;111172;1258;18800;-82
2022/07/21 07:07:31;;;;;;;;;17.67;17.00;;;;;25.47;51.33;101217.84;111178;1258;19567;-82
2022/07/21 07:10:00;;;;;;;;;21.33;19.00;;;;;25.55;51.08;101212.96;111087;1258;18846;-84
2022/07/21 07:12:27;;;;;;;;;17.67;16.67;;;;;25.67;50.93;101215.17;111172;1258;19159;-83
2022/07/21 07:14:54;;;;;;;;;17.00;17.00;;;;;25.68;51.24;101214.47;111102;1258;19890;-84
2022/07/21 07:17:22;;;;;;;;;17.33;17.00;;;;;25.77;50.97;101220.45;111123;1258;18751;-84
2022/07/21 07:19:49;;;;;;;;;29.67;26.00;;;;;25.83;50.89;101220.23;110983;1258;18804;-84
2022/07/21 07:22:16;;;;;;;;;19.67;19.67;;;;;25.85;50.98;101227.86;111138;1258;19589;-85
2022/07/21 07:24:44;;;;;;;;;19.33;15.67;;;;;25.87;51.25;101224.46;111102;1258;19799;-83
2022/07/21 07:27:11;;;;;;;;;22.00;18.00;;;;;25.82;51.48;101222.02;111123;1258;19159;-85
2022/07/21 07:29:38;;;;;;;;;20.67;19.33;;;;;25.78;51.92;101222.52;111174;1258;26777;-83
2022/07/21 07:32:05;;;;;;;;;19.67;18.00;;;;;25.74;52.32;101220.38;111209;1258;18741;-83
2022/07/21 07:34:33;;;;;;;;;16.33;15.67;;;;;25.69;52.69;101221.25;111152;1258;18775;-83
2022/07/21 07:37:00;;;;;;;;;19.67;15.67;;;;;25.68;53.14;101219.95;111105;1258;19382;-83
2022/07/21 07:39:27;;;;;;;;;23.00;17.00;;;;;25.72;53.21;101219.76;111131;1258;18759;-84
2022/07/21 07:41:55;;;;;;;;;18.00;17.00;;;;;25.74;53.23;101216.45;110479;1258;839124;-83
2022/07/21 07:44:23;;;;;;;;;16.33;13.67;;;;;25.71;53.22;101215.25;111099;1258;19952;-83
2022/07/21 07:46:50;;;;;;;;;18.33;17.67;;;;;25.70;53.16;101221.25;111098;1258;18823;-83
2022/07/21 07:49:18;;;;;;;;;15.67;15.67;;;;;25.64;53.23;101224.35;111137;1258;18924;-85
2022/07/21 07:51:45;;;;;;;;;19.00;18.00;;;;;25.55;53.39;101224.27;111132;1258;20119;-86
2022/07/21 07:54:13;;;;;;;;;15.00;15.00;;;;;25.50;53.73;101224.58;111157;1258;19496;-85
2022/07/21 07:56:40;;;;;;;;;19.67;18.00;;;;;25.50;53.45;101216.23;111457;1256;24072;-85
2022/07/21 07:59:07;;;;;;;;;17.67;17.00;;;;;25.57;53.54;101218.39;112282;1258;19606;-85
2022/07/21 08:01:35;;;;;;;;;21.00;17.00;;;;;25.68;53.45;101220.08;111628;1258;18760;-85
2022/07/21 08:04:02;;;;;;;;;19.00;13.00;;;;;25.77;53.28;101215.60;111109;1258;19235;-83
2022/07/21 08:06:29;;;;;;;;;15.00;14.00;;;;;25.82;53.25;101216.02;111058;1258;21527;-84
2022/07/21 08:08:57;;;;;;;;;16.00;15.50;;;;;25.79;53.46;101214.13;111073;1258;18824;-83
2022/07/21 08:11:24;;;;;;;;;14.33;14.00;;;;;25.75;53.65;101207.93;111102;1258;18991;-86
2022/07/21 08:13:51;;;;;;;;;13.33;12.33;;;;;25.72;53.62;101204.61;111181;1258;19491;-85
2022/07/21 08:16:19;;;;;;;;;13.00;13.00;;;;;25.69;53.81;101198.21;111115;1258;18704;-87
2022/07/21 08:18:46;;;;;;;;;13.33;13.00;;;;;25.69;54.16;101187.53;111024;1258;22896;-87
2022/07/21 08:21:13;;;;;;;;;14.00;13.67;;;;;25.70;54.69;101188.67;111067;1258;21090;-86
2022/07/21 08:23:40;;;;;;;;;14.67;13.67;;;;;25.72;54.85;101185.05;111182;1258;18723;-85
2022/07/21 08:26:08;;;;;;;;;35.00;31.67;;;;;25.71;55.01;101186.16;111199;1258;18865;-85
2022/07/21 08:28:35;;;;;;;;;24.00;23.00;;;;;25.69;55.36;101188.27;111223;1258;19503;-84
2022/07/21 08:31:02;;;;;;;;;26.00;24.00;;;;;25.73;55.53;101193.34;111196;1258;21946;-84
2022/07/21 08:33:30;;;;;;;;;26.00;25.00;;;;;25.77;55.29;101193.83;111113;1258;18873;-86
2022/07/21 08:35:57;;;;;;;;;24.50;23.00;;;;;25.79;55.35;101190.27;111024;1259;22649;-89
2022/07/21 08:38:24;;;;;;;;;23.50;22.50;;;;;25.80;55.34;101190.91;111218;1258;18695;-86
2022/07/21 08:40:51;;;;;;;;;26.00;24.00;;;;;25.79;55.85;101188.90;111181;1258;18854;-87
2022/07/21 08:43:19;;;;;;;;;26.00;25.00;;;;;25.77;55.70;101188.92;111114;1258;22559;-84
2022/07/21 08:45:46;;;;;;;;;22.00;22.00;;;;;25.77;55.48;101186.19;111166;1258;28649;-83
2022/07/21 08:48:19;;;;;;;;;26.33;25.33;;;;;25.78;55.78;101180.23;111162;1258;18926;-85
2022/07/21 08:50:46;;;;;;;;;26.00;25.00;;;;;25.78;55.56;101181.23;111191;1258;26783;-84
2022/07/21 08:53:13;;;;;;;;;30.33;26.33;;;;;25.78;55.52;101175.41;111227;1258;22179;-85
2022/07/21 08:55:40;;;;;;;;;28.33;27.33;;;;;25.76;55.79;101177.39;111206;1258;18894;-85
2022/07/21 08:58:08;;;;;;;;;27.00;24.00;;;;;25.73;55.82;101176.60;111147;1258;19650;-84
2022/07/21 09:00:36;;;;;;;;;29.33;22.33;;;;;25.76;55.34;101171.56;111160;1258;18709;-85
2022/07/21 09:03:03;;;;;;;;;24.50;21.50;;;;;25.78;54.95;101172.48;111207;1258;18864;-85
2022/07/21 09:05:30;;;;;;;;;23.67;21.00;;;;;25.79;54.97;101169.26;111294;1258;22577;-84
2022/07/21 09:07:58;;;;;;;;;20.00;20.00;;;;;25.80;55.43;101171.90;111317;1258;18776;-84
2022/07/21 09:10:25;;;;;;;;;21.00;20.00;;;;;25.79;55.38;101171.54;111174;1258;20624;-83
2022/07/21 09:12:52;;;;;;;;;21.50;21.00;;;;;25.79;55.01;101174.55;111215;1258;19689;-84
2022/07/21 09:15:20;;;;;;;;;18.67;16.67;;;;;25.79;54.83;101169.61;111161;1259;18687;-84
2022/07/21 09:17:47;;;;;;;;;17.67;17.67;;;;;25.79;54.62;101172.23;111219;1259;20792;-83
2022/07/21 09:20:14;;;;;;;;;19.00;18.33;;;;;25.80;54.64;101169.20;111344;1258;19465;-85
2022/07/21 09:22:42;;;;;;;;;20.33;19.33;;;;;25.78;54.46;101163.38;111218;1258;21002;-85
2022/07/21 09:25:09;;;;;;;;;18.33;18.00;;;;;25.77;54.38;101160.88;111171;1258;19074;-85
2022/07/21 09:27:36;;;;;;;;;18.67;18.67;;;;;25.75;54.30;101159.73;111193;1258;19643;-84
2022/07/21 09:30:03;;;;;;;;;17.67;17.67;;;;;25.75;54.40;101154.45;111156;1259;18678;-84
2022/07/21 09:32:31;;;;;;;;;21.00;18.00;;;;;25.75;54.28;101149.52;111218;1258;18889;-83
2022/07/21 09:34:58;;;;;;;;;15.00;15.00;;;;;25.74;54.25;101153.27;111199;1258;19555;-84
2022/07/21 09:37:25;;;;;;;;;18.33;17.67;;;;;25.73;54.10;101148.05;111211;1258;18795;-84
2022/07/21 09:39:53;;;;;;;;;15.00;14.00;;;;;25.73;54.25;101150.98;111293;1258;18912;-84
2022/07/21 09:42:20;;;;;;;;;19.00;15.00;;;;;25.72;54.05;101146.66;111255;1258;19521;-84
2022/07/21 09:44:48;;;;;;;;;15.00;14.33;;;;;25.72;54.08;101145.98;111297;1257;26924;-85
2022/07/21 09:47:15;;;;;;;;;15.00;14.00;;;;;25.73;54.08;101144.44;111373;1258;18984;-84
2022/07/21 09:49:42;;;;;;;;;15.00;14.33;;;;;25.74;54.15;101151.27;111310;1258;22051;-85
2022/07/21 09:52:10;;;;;;;;;15.00;14.50;;;;;25.75;54.45;101151.34;111261;1258;18864;-85
2022/07/21 09:54:37;;;;;;;;;19.00;15.00;;;;;25.76;54.24;101145.67;111267;1257;19207;-85
2022/07/21 09:57:04;;;;;;;;;15.00;14.50;;;;;25.75;54.39;101145.96;111338;1258;19708;-84
2022/07/21 09:59:31;;;;;;;;;13.67;13.67;;;;;25.75;54.26;101141.63;111353;1258;18664;-84
2022/07/21 10:01:59;;;;;;;;;18.50;15.00;;;;;25.77;54.25;101134.95;111339;1258;21853;-85
2022/07/21 10:04:26;;;;;;;;;14.50;14.00;;;;;25.79;54.23;101133.60;111287;1258;19373;-84
2022/07/21 10:06:53;;;;;;;;;14.00;14.00;;;;;25.79;54.28;101139.61;111290;1258;18812;-85
2022/07/21 10:09:21;;;;;;;;;17.00;15.67;;;;;25.80;54.44;101137.89;111280;1258;18835;-85
2022/07/21 10:11:48;;;;;;;;;15.33;14.00;;;;;25.80;54.17;101140.05;111231;1258;19743;-85
2022/07/21 10:14:15;;;;;;;;;13.00;13.00;;;;;25.79;54.15;101138.48;111836;1258;18846;-84
2022/07/21 10:16:42;;;;;;;;;15.00;15.00;;;;;25.78;54.02;101132.17;112226;1258;18817;-84
2022/07/21 10:19:10;;;;;;;;;15.00;14.33;;;;;25.78;54.00;101127.89;111432;1258;19466;-87
2022/07/21 10:21:37;;;;;;;;;16.33;14.00;;;;;25.79;54.06;101129.92;111281;1258;18849;-86
2022/07/21 10:24:05;;;;;;;;;16.33;16.33;;;;;25.79;54.01;101126.22;111180;1258;19243;-84
2022/07/21 10:26:33;;;;;;;;;15.33;15.00;;;;;25.79;54.02;101131.61;111319;1258;19682;-83
2022/07/21 10:29:00;;;;;;;;;15.00;14.67;;;;;25.78;53.84;101125.65;111264;1258;18768;-83
2022/07/21 10:31:28;;;;;;;;;15.67;14.00;;;;;25.77;53.94;101124.08;111294;1258;18738;-84
2022/07/21 10:33:55;;;;;;;;;15.00;13.33;;;;;25.76;53.87;101127.34;111299;1257;21811;-86
2022/07/21 10:36:22;;;;;;;;;15.00;14.67;;;;;25.74;53.88;101124.45;111306;1257;18646;-85
2022/07/21 10:38:50;;;;;;;;;14.00;13.50;;;;;25.73;53.97;101121.55;111273;1258;21176;-84
2022/07/21 10:41:17;;;;;;;;;16.67;15.00;;;;;25.72;53.99;101118.56;111288;1258;22138;-84
2022/07/21 10:43:44;;;;;;;;;17.00;16.00;;;;;25.71;53.63;101121.61;111288;1258;18936;-84
2022/07/21 10:46:12;;;;;;;;;15.67;15.00;;;;;25.67;53.62;101119.27;111318;1257;18995;-84
2022/07/21 10:48:39;;;;;;;;;13.33;13.00;;;;;25.62;53.59;101114.58;111323;1258;19520;-85
2022/07/21 10:51:07;;;;;;;;;15.00;15.00;;;;;25.59;53.81;101109.61;111288;1258;18802;-85
2022/07/21 10:53:34;;;;;;;;;14.00;14.00;;;;;25.57;53.61;101111.89;111323;1258;24023;-84
2022/07/21 10:56:01;;;;;;;;;14.00;13.00;;;;;25.54;53.43;101104.77;111285;1257;21174;-83
2022/07/21 10:58:29;;;;;;;;;14.00;14.00;;;;;25.53;53.57;101102.77;111288;1258;18728;-82
2022/07/21 11:00:57;;;;;;;;;15.67;14.67;;;;;25.52;53.52;101102.69;111265;1258;23618;-84
2022/07/21 11:03:25;;;;;;;;;15.00;14.67;;;;;25.53;53.42;101104.67;111262;1258;19611;-84
2022/07/21 11:05:52;;;;;;;;;16.00;15.33;;;;;25.56;53.30;101106.93;111295;1258;18803;-82